sensor_id;sensor_type;location;lat;lon;timestamp;temperature;humidity
30572;DHT22;17348;50.948;10.696;2023-05-07T00:02:58;11.40;99.90
30572;DHT22;17348;50.948;10.696;2023-05-07T00:06:01;11.40;99.90
30572;DHT22;17348;50.948;10.696;2023-05-07T00:09:03;11.40;99.90
30572;DHT22;17348;50.948;10.696;2023-05-07T00:12:06;11.30;99.90
30572;DHT22;17348;50.948;10.696;2023-05-07T00:15:09;11.30;99.90
30572;DHT22;17348;50.948;10.696;2023-05-07T00:18:12;11.20;99.90
30572;DHT22;17348;50.948;10.696;2023-05-07T00:21:15;11.20;99.90
30572;DHT22;17348;50.948;10.696;2023-05-07T00:24:18;11.20;99.90
30572;DHT22;17348;50.948;10.696;2023-05-07T00:27:20;11.10;99.90
30572;DHT22;17348;50.948;10.696;2023-05-07T00:30:22;11.10;99.90
30572;DHT22;17348;50.948;10.696;2023-05-07T00:33:25;11.10;99.90
30572;DHT22;17348;50.948;10.696;2023-05-07T00:36:29;11.10;99.90
30572;DHT22;17348;50.948;10.696;2023-05-07T00:39:31;11.00;99.90
30572;DHT22;17348;50.948;10.696;2023-05-07T00:42:34;11.00;99.90
30572;DHT22;17348;50.948;10.696;2023-05-07T00:45:36;11.00;99.90
30572;DHT22;17348;50.948;10.696;2023-05-07T00:48:39;11.00;99.90
30572;DHT22;17348;50.948;10.696;2023-05-07T00:51:44;10.90;99.90
30572;DHT22;17348;50.948;10.696;2023-05-07T00:54:47;10.90;99.90
30572;DHT22;17348;50.948;10.696;2023-05-07T00:57:50;10.90;99.90
30572;DHT22;17348;50.948;10.696;2023-05-07T01:00:52;10.90;99.90
30572;DHT22;17348;50.948;10.696;2023-05-07T01:03:55;11.00;99.90
30572;DHT22;17348;50.948;10.696;2023-05-07T01:07:01;11.00;99.90
30572;DHT22;17348;50.948;10.696;2023-05-07T01:10:05;11.00;99.90
30572;DHT22;17348;50.948;10.696;2023-05-07T01:13:08;11.00;99.90
30572;DHT22;17348;50.948;10.696;2023-05-07T01:16:11;10.90;99.90
30572;DHT22;17348;50.948;10.696;2023-05-07T01:19:14;10.90;99.90
30572;DHT22;17348;50.948;10.696;2023-05-07T01:22:28;10.90;99.90
30572;DHT22;17348;50.948;10.696;2023-05-07T01:25:31;10.90;99.90
30572;DHT22;17348;50.948;10.696;2023-05-07T01:28:33;10.90;99.90
30572;DHT22;17348;50.948;10.696;2023-05-07T01:31:36;10.90;99.90
30572;DHT22;17348;50.948;10.696;2023-05-07T01:34:39;10.90;99.90
30572;DHT22;17348;50.948;10.696;2023-05-07T01:37:43;10.80;99.90
30572;DHT22;17348;50.948;10.696;2023-05-07T01:40:46;10.90;99.90
30572;DHT22;17348;50.948;10.696;2023-05-07T01:43:50;10.80;99.90
30572;DHT22;17348;50.948;10.696;2023-05-07T01:46:54;10.90;99.90
30572;DHT22;17348;50.948;10.696;2023-05-07T01:49:57;10.80;99.90
30572;DHT22;17348;50.948;10.696;2023-05-07T01:53:01;10.80;99.90
30572;DHT22;17348;50.948;10.696;2023-05-07T01:56:05;10.80;99.90
30572;DHT22;17348;50.948;10.696;2023-05-07T01:59:07;10.80;99.90
30572;DHT22;17348;50.948;10.696;2023-05-07T02:02:10;10.80;99.90
30572;DHT22;17348;50.948;10.696;2023-05-07T02:05:12;10.80;99.90
30572;DHT22;17348;50.948;10.696;2023-05-07T02:08:16;10.80;99.90
30572;DHT22;17348;50.948;10.696;2023-05-07T02:11:18;10.80;99.90
30572;DHT22;17348;50.948;10.696;2023-05-07T02:14:20;10.80;99.90
30572;DHT22;17348;50.948;10.696;2023-05-07T02:17:23;10.80;99.90
30572;DHT22;17348;50.948;10.696;2023-05-07T02:20:25;10.90;99.90
30572;DHT22;17348;50.948;10.696;2023-05-07T02:23:29;10.90;99.90
30572;DHT22;17348;50.948;10.696;2023-05-07T02:26:31;10.90;99.90
30572;DHT22;17348;50.948;10.696;2023-05-07T02:29:34;10.90;99.90
30572;DHT22;17348;50.948;10.696;2023-05-07T02:32:36;10.90;99.90
30572;DHT22;17348;50.948;10.696;2023-05-07T02:35:38;10.90;99.90
30572;DHT22;17348;50.948;10.696;2023-05-07T02:38:42;10.80;99.90
30572;DHT22;17348;50.948;10.696;2023-05-07T02:41:44;10.80;99.90
30572;DHT22;17348;50.948;10.696;2023-05-07T02:44:47;10.70;99.90
30572;DHT22;17348;50.948;10.696;2023-05-07T02:47:49;10.70;99.90
30572;DHT22;17348;50.948;10.696;2023-05-07T02:50:52;10.70;99.90
30572;DHT22;17348;50.948;10.696;2023-05-07T02:53:55;10.70;99.90
30572;DHT22;17348;50.948;10.696;2023-05-07T02:56:58;10.70;99.90
30572;DHT22;17348;50.948;10.696;2023-05-07T03:00:11;10.70;99.90
30572;DHT22;17348;50.948;10.696;2023-05-07T03:03:13;10.70;99.90
30572;DHT22;17348;50.948;10.696;2023-05-07T03:06:16;10.70;99.90
30572;DHT22;17348;50.948;10.696;2023-05-07T03:09:19;10.60;99.90
30572;DHT22;17348;50.948;10.696;2023-05-07T03:12:22;10.60;99.90
30572;DHT22;17348;50.948;10.696;2023-05-07T03:15:24;10.60;99.90
30572;DHT22;17348;50.948;10.696;2023-05-07T03:18:26;10.60;99.90
30572;DHT22;17348;50.948;10.696;2023-05-07T03:21:29;10.60;99.90
30572;DHT22;17348;50.948;10.696;2023-05-07T03:24:33;10.60;99.90
30572;DHT22;17348;50.948;10.696;2023-05-07T03:27:35;10.70;99.90
30572;DHT22;17348;50.948;10.696;2023-05-07T03:30:37;10.70;99.90
30572;DHT22;17348;50.948;10.696;2023-05-07T03:33:50;10.70;99.90
30572;DHT22;17348;50.948;10.696;2023-05-07T03:36:52;10.70;99.90
30572;DHT22;17348;50.948;10.696;2023-05-07T03:39:56;10.60;99.90
30572;DHT22;17348;50.948;10.696;2023-05-07T03:42:59;10.60;99.90
30572;DHT22;17348;50.948;10.696;2023-05-07T03:46:02;10.60;99.90
30572;DHT22;17348;50.948;10.696;2023-05-07T03:49:04;10.60;99.90
30572;DHT22;17348;50.948;10.696;2023-05-07T03:52:06;10.60;99.90
30572;DHT22;17348;50.948;10.696;2023-05-07T03:55:10;10.60;99.90
30572;DHT22;17348;50.948;10.696;2023-05-07T03:58:12;10.60;99.90
30572;DHT22;17348;50.948;10.696;2023-05-07T04:01:15;10.60;99.90
30572;DHT22;17348;50.948;10.696;2023-05-07T04:04:18;10.60;99.90
30572;DHT22;17348;50.948;10.696;2023-05-07T04:07:21;10.60;99.90
30572;DHT22;17348;50.948;10.696;2023-05-07T04:10:25;10.50;99.90
30572;DHT22;17348;50.948;10.696;2023-05-07T04:13:30;10.50;99.90
30572;DHT22;17348;50.948;10.696;2023-05-07T04:16:32;10.50;99.90
30572;DHT22;17348;50.948;10.696;2023-05-07T04:19:34;10.50;99.90
30572;DHT22;17348;50.948;10.696;2023-05-07T04:22:37;10.40;99.90
30572;DHT22;17348;50.948;10.696;2023-05-07T04:25:40;10.40;99.90
30572;DHT22;17348;50.948;10.696;2023-05-07T04:28:43;10.40;99.90
30572;DHT22;17348;50.948;10.696;2023-05-07T04:31:45;10.40;99.90
30572;DHT22;17348;50.948;10.696;2023-05-07T04:34:48;10.40;99.90
30572;DHT22;17348;50.948;10.696;2023-05-07T04:37:50;10.40;99.90
30572;DHT22;17348;50.948;10.696;2023-05-07T04:40:54;10.50;99.90
30572;DHT22;17348;50.948;10.696;2023-05-07T04:43:56;10.40;99.90
30572;DHT22;17348;50.948;10.696;2023-05-07T04:46:59;10.50;99.90
30572;DHT22;17348;50.948;10.696;2023-05-07T04:50:02;10.50;99.90
30572;DHT22;17348;50.948;10.696;2023-05-07T04:53:04;10.50;99.90
30572;DHT22;17348;50.948;10.696;2023-05-07T04:56:08;10.50;99.90
30572;DHT22;17348;50.948;10.696;2023-05-07T04:59:10;10.50;99.90
30572;DHT22;17348;50.948;10.696;2023-05-07T05:02:12;10.50;99.90
30572;DHT22;17348;50.948;10.696;2023-05-07T05:05:15;10.50;99.90
30572;DHT22;17348;50.948;10.696;2023-05-07T05:08:18;10.50;99.90
30572;DHT22;17348;50.948;10.696;2023-05-07T05:11:21;10.50;99.90
30572;DHT22;17348;50.948;10.696;2023-05-07T05:14:24;10.60;99.90
30572;DHT22;17348;50.948;10.696;2023-05-07T05:17:27;10.60;99.90
30572;DHT22;17348;50.948;10.696;2023-05-07T05:20:29;10.60;99.90
30572;DHT22;17348;50.948;10.696;2023-05-07T05:23:31;10.60;99.90
30572;DHT22;17348;50.948;10.696;2023-05-07T05:26:35;10.60;99.90
30572;DHT22;17348;50.948;10.696;2023-05-07T05:29:37;10.60;99.90
30572;DHT22;17348;50.948;10.696;2023-05-07T05:32:40;10.60;99.90
30572;DHT22;17348;50.948;10.696;2023-05-07T05:35:42;10.60;99.90
30572;DHT22;17348;50.948;10.696;2023-05-07T05:38:44;10.60;99.90
30572;DHT22;17348;50.948;10.696;2023-05-07T05:41:48;10.70;99.90
30572;DHT22;17348;50.948;10.696;2023-05-07T05:44:50;10.70;99.90
30572;DHT22;17348;50.948;10.696;2023-05-07T05:47:53;10.70;99.90
30572;DHT22;17348;50.948;10.696;2023-05-07T05:50:55;10.70;99.90
30572;DHT22;17348;50.948;10.696;2023-05-07T05:53:57;10.70;99.90
30572;DHT22;17348;50.948;10.696;2023-05-07T05:57:01;10.70;99.90
30572;DHT22;17348;50.948;10.696;2023-05-07T06:00:06;10.70;99.90
30572;DHT22;17348;50.948;10.696;2023-05-07T06:03:08;10.60;99.90
30572;DHT22;17348;50.948;10.696;2023-05-07T06:06:11;10.70;99.90
30572;DHT22;17348;50.948;10.696;2023-05-07T06:09:15;10.70;99.90
30572;DHT22;17348;50.948;10.696;2023-05-07T06:12:19;10.70;99.90
30572;DHT22;17348;50.948;10.696;2023-05-07T06:15:21;10.70;99.90
30572;DHT22;17348;50.948;10.696;2023-05-07T06:18:23;10.60;99.90
30572;DHT22;17348;50.948;10.696;2023-05-07T06:21:26;10.70;99.90
30572;DHT22;17348;50.948;10.696;2023-05-07T06:24:28;10.60;99.90
30572;DHT22;17348;50.948;10.696;2023-05-07T06:27:32;10.50;99.90
30572;DHT22;17348;50.948;10.696;2023-05-07T06:30:34;10.50;99.90
30572;DHT22;17348;50.948;10.696;2023-05-07T06:33:36;10.50;99.90
30572;DHT22;17348;50.948;10.696;2023-05-07T06:36:39;10.50;99.90
30572;DHT22;17348;50.948;10.696;2023-05-07T06:39:41;10.50;99.90
30572;DHT22;17348;50.948;10.696;2023-05-07T06:42:45;10.50;99.90
30572;DHT22;17348;50.948;10.696;2023-05-07T06:45:47;10.50;99.90
30572;DHT22;17348;50.948;10.696;2023-05-07T06:48:49;10.50;99.90
30572;DHT22;17348;50.948;10.696;2023-05-07T06:51:53;10.40;99.90
30572;DHT22;17348;50.948;10.696;2023-05-07T06:54:55;10.30;99.90
30572;DHT22;17348;50.948;10.696;2023-05-07T06:57:59;10.30;99.90
30572;DHT22;17348;50.948;10.696;2023-05-07T07:01:02;10.30;99.90
30572;DHT22;17348;50.948;10.696;2023-05-07T07:04:04;10.30;99.90
30572;DHT22;17348;50.948;10.696;2023-05-07T07:07:06;10.20;99.90
30572;DHT22;17348;50.948;10.696;2023-05-07T07:10:09;10.30;99.90
30572;DHT22;17348;50.948;10.696;2023-05-07T07:13:13;10.20;99.90
30572;DHT22;17348;50.948;10.696;2023-05-07T07:16:15;10.20;99.90
30572;DHT22;17348;50.948;10.696;2023-05-07T07:19:17;10.20;99.90
30572;DHT22;17348;50.948;10.696;2023-05-07T07:22:21;10.20;99.90
30572;DHT22;17348;50.948;10.696;2023-05-07T07:25:23;10.20;99.90
30572;DHT22;17348;50.948;10.696;2023-05-07T07:28:27;10.10;99.90
30572;DHT22;17348;50.948;10.696;2023-05-07T07:31:29;10.10;99.90
30572;DHT22;17348;50.948;10.696;2023-05-07T07:34:31;10.10;99.90
30572;DHT22;17348;50.948;10.696;2023-05-07T07:37:34;10.10;99.90
30572;DHT22;17348;50.948;10.696;2023-05-07T07:40:36;10.20;99.90
30572;DHT22;17348;50.948;10.696;2023-05-07T07:43:40;10.20;99.90
30572;DHT22;17348;50.948;10.696;2023-05-07T07:46:42;10.20;99.90
30572;DHT22;17348;50.948;10.696;2023-05-07T07:49:44;10.20;99.90
30572;DHT22;17348;50.948;10.696;2023-05-07T07:52:48;10.20;99.90
30572;DHT22;17348;50.948;10.696;2023-05-07T07:55:51;10.30;99.90
30572;DHT22;17348;50.948;10.696;2023-05-07T07:58:54;10.30;99.90
30572;DHT22;17348;50.948;10.696;2023-05-07T08:01:57;10.30;99.90
30572;DHT22;17348;50.948;10.696;2023-05-07T08:04:59;10.40;99.90
30572;DHT22;17348;50.948;10.696;2023-05-07T08:08:01;10.40;99.90
30572;DHT22;17348;50.948;10.696;2023-05-07T08:11:04;10.50;99.90
30572;DHT22;17348;50.948;10.696;2023-05-07T08:14:08;10.50;99.90
30572;DHT22;17348;50.948;10.696;2023-05-07T08:17:10;10.50;99.90
30572;DHT22;17348;50.948;10.696;2023-05-07T08:20:12;10.50;99.90
30572;DHT22;17348;50.948;10.696;2023-05-07T08:23:14;10.60;99.90
30572;DHT22;17348;50.948;10.696;2023-05-07T08:26:17;10.50;99.90
30572;DHT22;17348;50.948;10.696;2023-05-07T08:29:20;10.60;99.90
30572;DHT22;17348;50.948;10.696;2023-05-07T08:32:23;10.50;99.90
30572;DHT22;17348;50.948;10.696;2023-05-07T08:35:25;10.50;99.90
30572;DHT22;17348;50.948;10.696;2023-05-07T08:38:28;10.60;99.90
30572;DHT22;17348;50.948;10.696;2023-05-07T08:41:31;10.60;99.90
30572;DHT22;17348;50.948;10.696;2023-05-07T08:44:35;10.60;99.90
30572;DHT22;17348;50.948;10.696;2023-05-07T08:47:43;10.70;99.90
30572;DHT22;17348;50.948;10.696;2023-05-07T08:50:46;10.70;99.90
30572;DHT22;17348;50.948;10.696;2023-05-07T08:53:49;10.80;99.90
30572;DHT22;17348;50.948;10.696;2023-05-07T08:56:52;10.80;99.90
30572;DHT22;17348;50.948;10.696;2023-05-07T08:59:55;10.80;99.90
30572;DHT22;17348;50.948;10.696;2023-05-07T09:02:58;10.80;99.90
30572;DHT22;17348;50.948;10.696;2023-05-07T09:06:00;10.90;99.90
30572;DHT22;17348;50.948;10.696;2023-05-07T09:09:02;10.90;99.90
30572;DHT22;17348;50.948;10.696;2023-05-07T09:12:06;10.90;99.90
30572;DHT22;17348;50.948;10.696;2023-05-07T09:15:10;10.90;99.90
30572;DHT22;17348;50.948;10.696;2023-05-07T09:18:14;10.90;99.90
30572;DHT22;17348;50.948;10.696;2023-05-07T09:21:17;10.90;99.90
30572;DHT22;17348;50.948;10.696;2023-05-07T09:24:20;10.90;99.90
30572;DHT22;17348;50.948;10.696;2023-05-07T09:27:22;11.00;99.90
30572;DHT22;17348;50.948;10.696;2023-05-07T09:30:28;11.00;99.90
30572;DHT22;17348;50.948;10.696;2023-05-07T09:33:31;11.00;99.90
30572;DHT22;17348;50.948;10.696;2023-05-07T09:36:33;11.00;99.90
30572;DHT22;17348;50.948;10.696;2023-05-07T09:39:40;11.10;99.90
30572;DHT22;17348;50.948;10.696;2023-05-07T09:42:42;11.10;99.90
30572;DHT22;17348;50.948;10.696;2023-05-07T09:45:46;11.10;99.90
30572;DHT22;17348;50.948;10.696;2023-05-07T09:48:53;11.20;99.90
30572;DHT22;17348;50.948;10.696;2023-05-07T09:52:00;11.10;99.90
30572;DHT22;17348;50.948;10.696;2023-05-07T09:55:03;11.20;99.90
30572;DHT22;17348;50.948;10.696;2023-05-07T09:58:07;11.20;99.90
30572;DHT22;17348;50.948;10.696;2023-05-07T10:01:12;11.20;99.90
30572;DHT22;17348;50.948;10.696;2023-05-07T10:04:14;11.20;99.90
30572;DHT22;17348;50.948;10.696;2023-05-07T10:07:17;11.30;99.90
30572;DHT22;17348;50.948;10.696;2023-05-07T10:10:20;11.30;99.90
30572;DHT22;17348;50.948;10.696;2023-05-07T10:13:23;11.40;99.90
30572;DHT22;17348;50.948;10.696;2023-05-07T10:16:27;11.50;99.90
30572;DHT22;17348;50.948;10.696;2023-05-07T10:19:31;11.60;99.90
30572;DHT22;17348;50.948;10.696;2023-05-07T10:22:39;11.60;99.90
30572;DHT22;17348;50.948;10.696;2023-05-07T10:25:43;11.70;99.90
30572;DHT22;17348;50.948;10.696;2023-05-07T10:28:49;11.70;99.90
30572;DHT22;17348;50.948;10.696;2023-05-07T10:32:01;11.80;99.90
30572;DHT22;17348;50.948;10.696;2023-05-07T10:35:10;11.80;99.90
30572;DHT22;17348;50.948;10.696;2023-05-07T10:38:13;11.80;99.90
30572;DHT22;17348;50.948;10.696;2023-05-07T10:41:15;11.80;99.90
30572;DHT22;17348;50.948;10.696;2023-05-07T10:44:26;11.80;99.90
30572;DHT22;17348;50.948;10.696;2023-05-07T10:47:30;11.90;99.90
30572;DHT22;17348;50.948;10.696;2023-05-07T10:50:33;12.00;99.90
30572;DHT22;17348;50.948;10.696;2023-05-07T10:53:35;12.00;99.90
30572;DHT22;17348;50.948;10.696;2023-05-07T10:56:38;12.10;99.90
30572;DHT22;17348;50.948;10.696;2023-05-07T10:59:41;12.20;99.90
30572;DHT22;17348;50.948;10.696;2023-05-07T11:03:07;12.20;99.90
30572;DHT22;17348;50.948;10.696;2023-05-07T11:06:10;12.20;99.90
30572;DHT22;17348;50.948;10.696;2023-05-07T11:09:13;12.30;99.90
30572;DHT22;17348;50.948;10.696;2023-05-07T11:12:15;12.40;99.90
30572;DHT22;17348;50.948;10.696;2023-05-07T11:15:43;12.40;99.90
30572;DHT22;17348;50.948;10.696;2023-05-07T11:18:48;12.40;99.90
30572;DHT22;17348;50.948;10.696;2023-05-07T11:21:51;12.40;99.90
30572;DHT22;17348;50.948;10.696;2023-05-07T11:24:55;12.40;99.90
30572;DHT22;17348;50.948;10.696;2023-05-07T11:28:05;12.50;99.90
30572;DHT22;17348;50.948;10.696;2023-05-07T11:31:10;12.60;99.90
30572;DHT22;17348;50.948;10.696;2023-05-07T11:34:15;12.70;99.90
30572;DHT22;17348;50.948;10.696;2023-05-07T11:37:23;12.80;99.90
30572;DHT22;17348;50.948;10.696;2023-05-07T11:40:26;13.00;99.90
30572;DHT22;17348;50.948;10.696;2023-05-07T11:43:29;13.10;99.90
30572;DHT22;17348;50.948;10.696;2023-05-07T11:46:32;13.10;99.90
30572;DHT22;17348;50.948;10.696;2023-05-07T11:49:39;13.20;99.90
30572;DHT22;17348;50.948;10.696;2023-05-07T11:52:50;13.30;99.90
30572;DHT22;17348;50.948;10.696;2023-05-07T11:55:53;13.50;99.90
30572;DHT22;17348;50.948;10.696;2023-05-07T11:58:55;13.40;99.90
30572;DHT22;17348;50.948;10.696;2023-05-07T12:01:58;13.50;99.90
30572;DHT22;17348;50.948;10.696;2023-05-07T12:05:02;13.60;99.90
30572;DHT22;17348;50.948;10.696;2023-05-07T12:08:05;13.60;99.90
30572;DHT22;17348;50.948;10.696;2023-05-07T12:11:08;13.70;99.90
30572;DHT22;17348;50.948;10.696;2023-05-07T12:14:12;13.70;99.90
30572;DHT22;17348;50.948;10.696;2023-05-07T12:17:17;13.80;99.90
30572;DHT22;17348;50.948;10.696;2023-05-07T12:20:21;13.90;99.90
30572;DHT22;17348;50.948;10.696;2023-05-07T12:23:23;14.00;99.90
30572;DHT22;17348;50.948;10.696;2023-05-07T12:26:26;14.00;99.90
30572;DHT22;17348;50.948;10.696;2023-05-07T12:29:28;14.20;99.90
30572;DHT22;17348;50.948;10.696;2023-05-07T12:32:31;14.20;99.90
30572;DHT22;17348;50.948;10.696;2023-05-07T12:35:39;14.20;99.90
30572;DHT22;17348;50.948;10.696;2023-05-07T12:38:42;14.30;99.90
30572;DHT22;17348;50.948;10.696;2023-05-07T12:42:02;14.40;99.90
30572;DHT22;17348;50.948;10.696;2023-05-07T12:45:09;14.50;99.90
30572;DHT22;17348;50.948;10.696;2023-05-07T12:48:11;14.60;99.90
30572;DHT22;17348;50.948;10.696;2023-05-07T12:51:15;14.50;99.90
30572;DHT22;17348;50.948;10.696;2023-05-07T12:54:28;14.50;99.90
30572;DHT22;17348;50.948;10.696;2023-05-07T12:57:31;14.50;99.90
30572;DHT22;17348;50.948;10.696;2023-05-07T13:00:39;14.40;99.90
30572;DHT22;17348;50.948;10.696;2023-05-07T13:03:41;14.40;99.90
30572;DHT22;17348;50.948;10.696;2023-05-07T13:06:51;14.40;99.90
30572;DHT22;17348;50.948;10.696;2023-05-07T13:09:53;14.30;99.90
30572;DHT22;17348;50.948;10.696;2023-05-07T13:12:56;14.30;99.90
30572;DHT22;17348;50.948;10.696;2023-05-07T13:15:58;14.40;99.90
30572;DHT22;17348;50.948;10.696;2023-05-07T13:19:01;14.40;99.90
30572;DHT22;17348;50.948;10.696;2023-05-07T13:22:05;14.50;99.90
30572;DHT22;17348;50.948;10.696;2023-05-07T13:25:08;14.50;99.90
30572;DHT22;17348;50.948;10.696;2023-05-07T13:28:11;14.40;99.90
30572;DHT22;17348;50.948;10.696;2023-05-07T13:31:13;14.40;99.90
30572;DHT22;17348;50.948;10.696;2023-05-07T13:34:15;14.40;99.90
30572;DHT22;17348;50.948;10.696;2023-05-07T13:37:19;14.40;99.90
30572;DHT22;17348;50.948;10.696;2023-05-07T13:40:22;14.60;99.90
30572;DHT22;17348;50.948;10.696;2023-05-07T13:43:25;14.50;99.90
30572;DHT22;17348;50.948;10.696;2023-05-07T13:46:27;14.60;99.90
30572;DHT22;17348;50.948;10.696;2023-05-07T13:49:30;14.60;99.90
30572;DHT22;17348;50.948;10.696;2023-05-07T13:52:34;14.70;99.90
30572;DHT22;17348;50.948;10.696;2023-05-07T13:55:36;14.70;99.90
30572;DHT22;17348;50.948;10.696;2023-05-07T13:58:39;14.70;99.90
30572;DHT22;17348;50.948;10.696;2023-05-07T14:01:41;14.70;99.90
30572;DHT22;17348;50.948;10.696;2023-05-07T14:04:43;14.70;99.90
30572;DHT22;17348;50.948;10.696;2023-05-07T14:07:48;14.70;99.90
30572;DHT22;17348;50.948;10.696;2023-05-07T14:10:52;14.80;99.90
30572;DHT22;17348;50.948;10.696;2023-05-07T14:13:55;14.80;99.90
30572;DHT22;17348;50.948;10.696;2023-05-07T14:16:57;14.90;99.90
30572;DHT22;17348;50.948;10.696;2023-05-07T14:20:00;14.90;99.90
30572;DHT22;17348;50.948;10.696;2023-05-07T14:23:04;14.90;99.90
30572;DHT22;17348;50.948;10.696;2023-05-07T14:26:09;15.00;99.90
30572;DHT22;17348;50.948;10.696;2023-05-07T14:29:11;14.90;99.90
30572;DHT22;17348;50.948;10.696;2023-05-07T14:32:14;14.90;99.90
30572;DHT22;17348;50.948;10.696;2023-05-07T14:35:16;14.90;99.90
30572;DHT22;17348;50.948;10.696;2023-05-07T14:38:20;15.00;99.90
30572;DHT22;17348;50.948;10.696;2023-05-07T14:41:22;14.90;99.90
30572;DHT22;17348;50.948;10.696;2023-05-07T14:44:25;14.90;99.90
30572;DHT22;17348;50.948;10.696;2023-05-07T14:47:27;15.00;99.90
30572;DHT22;17348;50.948;10.696;2023-05-07T14:50:31;15.00;99.90
30572;DHT22;17348;50.948;10.696;2023-05-07T14:53:35;15.00;99.90
30572;DHT22;17348;50.948;10.696;2023-05-07T14:56:38;15.00;99.90
30572;DHT22;17348;50.948;10.696;2023-05-07T14:59:40;14.80;99.90
30572;DHT22;17348;50.948;10.696;2023-05-07T15:02:44;14.90;99.90
30572;DHT22;17348;50.948;10.696;2023-05-07T15:05:48;14.90;99.90
30572;DHT22;17348;50.948;10.696;2023-05-07T15:08:53;14.90;99.90
30572;DHT22;17348;50.948;10.696;2023-05-07T15:11:56;14.90;99.90
30572;DHT22;17348;50.948;10.696;2023-05-07T15:15:01;14.90;99.90
30572;DHT22;17348;50.948;10.696;2023-05-07T15:18:04;14.80;99.90
30572;DHT22;17348;50.948;10.696;2023-05-07T15:21:06;14.80;99.90
30572;DHT22;17348;50.948;10.696;2023-05-07T15:24:10;14.90;99.90
30572;DHT22;17348;50.948;10.696;2023-05-07T15:27:12;15.00;99.90
30572;DHT22;17348;50.948;10.696;2023-05-07T15:30:15;15.00;99.90
30572;DHT22;17348;50.948;10.696;2023-05-07T15:33:20;14.90;99.90
30572;DHT22;17348;50.948;10.696;2023-05-07T15:36:22;14.90;99.90
30572;DHT22;17348;50.948;10.696;2023-05-07T15:39:26;14.90;99.90
30572;DHT22;17348;50.948;10.696;2023-05-07T15:42:29;14.90;99.90
30572;DHT22;17348;50.948;10.696;2023-05-07T15:45:31;14.90;99.90
30572;DHT22;17348;50.948;10.696;2023-05-07T15:48:34;14.80;99.90
30572;DHT22;17348;50.948;10.696;2023-05-07T15:51:41;14.80;99.90
30572;DHT22;17348;50.948;10.696;2023-05-07T15:54:47;14.80;99.90
30572;DHT22;17348;50.948;10.696;2023-05-07T15:57:50;14.70;99.90
30572;DHT22;17348;50.948;10.696;2023-05-07T16:00:55;14.60;99.90
30572;DHT22;17348;50.948;10.696;2023-05-07T16:03:57;14.50;99.90
30572;DHT22;17348;50.948;10.696;2023-05-07T16:06:59;14.40;99.90
30572;DHT22;17348;50.948;10.696;2023-05-07T16:10:04;14.30;99.90
30572;DHT22;17348;50.948;10.696;2023-05-07T16:13:07;14.30;99.90
30572;DHT22;17348;50.948;10.696;2023-05-07T16:16:10;14.30;99.90
30572;DHT22;17348;50.948;10.696;2023-05-07T16:19:13;14.30;99.90
30572;DHT22;17348;50.948;10.696;2023-05-07T16:22:15;14.30;99.90
30572;DHT22;17348;50.948;10.696;2023-05-07T16:25:19;14.30;99.90
30572;DHT22;17348;50.948;10.696;2023-05-07T16:28:22;14.30;99.90
30572;DHT22;17348;50.948;10.696;2023-05-07T16:31:24;14.30;99.90
30572;DHT22;17348;50.948;10.696;2023-05-07T16:34:26;14.20;99.90
30572;DHT22;17348;50.948;10.696;2023-05-07T16:37:31;14.20;99.90
30572;DHT22;17348;50.948;10.696;2023-05-07T16:40:41;14.20;99.90
30572;DHT22;17348;50.948;10.696;2023-05-07T16:43:44;14.10;99.90
30572;DHT22;17348;50.948;10.696;2023-05-07T16:46:46;14.20;99.90
30572;DHT22;17348;50.948;10.696;2023-05-07T16:49:49;14.10;99.90
30572;DHT22;17348;50.948;10.696;2023-05-07T16:52:51;14.10;99.90
30572;DHT22;17348;50.948;10.696;2023-05-07T16:55:57;14.10;99.90
30572;DHT22;17348;50.948;10.696;2023-05-07T16:58:59;14.00;99.90
30572;DHT22;17348;50.948;10.696;2023-05-07T17:02:02;13.90;99.90
30572;DHT22;17348;50.948;10.696;2023-05-07T17:05:12;13.80;99.90
30572;DHT22;17348;50.948;10.696;2023-05-07T17:08:15;13.70;99.90
30572;DHT22;17348;50.948;10.696;2023-05-07T17:11:18;13.60;99.90
30572;DHT22;17348;50.948;10.696;2023-05-07T17:14:21;13.60;99.90
30572;DHT22;17348;50.948;10.696;2023-05-07T17:17:23;13.50;99.90
30572;DHT22;17348;50.948;10.696;2023-05-07T17:20:26;13.50;99.90
30572;DHT22;17348;50.948;10.696;2023-05-07T17:23:28;13.40;99.90
30572;DHT22;17348;50.948;10.696;2023-05-07T17:26:32;13.40;99.90
30572;DHT22;17348;50.948;10.696;2023-05-07T17:29:36;13.30;99.90
30572;DHT22;17348;50.948;10.696;2023-05-07T17:32:38;13.30;99.90
30572;DHT22;17348;50.948;10.696;2023-05-07T17:35:41;13.20;99.90
30572;DHT22;17348;50.948;10.696;2023-05-07T17:38:43;13.20;99.90
30572;DHT22;17348;50.948;10.696;2023-05-07T17:41:47;13.10;99.90
30572;DHT22;17348;50.948;10.696;2023-05-07T17:44:49;13.10;99.90
30572;DHT22;17348;50.948;10.696;2023-05-07T17:47:52;13.00;99.90
30572;DHT22;17348;50.948;10.696;2023-05-07T17:50:59;13.00;99.90
30572;DHT22;17348;50.948;10.696;2023-05-07T17:54:02;12.90;99.90
30572;DHT22;17348;50.948;10.696;2023-05-07T17:57:06;12.90;99.90
30572;DHT22;17348;50.948;10.696;2023-05-07T18:00:09;12.80;99.90
30572;DHT22;17348;50.948;10.696;2023-05-07T18:03:11;12.80;99.90
30572;DHT22;17348;50.948;10.696;2023-05-07T18:06:20;12.80;99.90
30572;DHT22;17348;50.948;10.696;2023-05-07T18:09:27;12.70;99.90
30572;DHT22;17348;50.948;10.696;2023-05-07T18:12:33;12.70;99.90
30572;DHT22;17348;50.948;10.696;2023-05-07T18:15:38;12.60;99.90
30572;DHT22;17348;50.948;10.696;2023-05-07T18:18:43;12.60;99.90
30572;DHT22;17348;50.948;10.696;2023-05-07T18:21:46;12.50;99.90
30572;DHT22;17348;50.948;10.696;2023-05-07T18:24:50;12.40;99.90
30572;DHT22;17348;50.948;10.696;2023-05-07T18:27:57;12.40;99.90
30572;DHT22;17348;50.948;10.696;2023-05-07T18:30:59;12.30;99.90
30572;DHT22;17348;50.948;10.696;2023-05-07T18:34:02;12.20;99.90
30572;DHT22;17348;50.948;10.696;2023-05-07T18:37:04;12.20;99.90
30572;DHT22;17348;50.948;10.696;2023-05-07T18:40:08;12.10;99.90
30572;DHT22;17348;50.948;10.696;2023-05-07T18:43:11;12.10;99.90
30572;DHT22;17348;50.948;10.696;2023-05-07T18:46:16;12.00;99.90
30572;DHT22;17348;50.948;10.696;2023-05-07T18:49:18;11.90;99.90
30572;DHT22;17348;50.948;10.696;2023-05-07T18:52:20;11.80;99.90
30572;DHT22;17348;50.948;10.696;2023-05-07T18:55:26;11.80;99.90
30572;DHT22;17348;50.948;10.696;2023-05-07T18:58:30;11.70;99.90
30572;DHT22;17348;50.948;10.696;2023-05-07T19:01:34;11.60;99.90